CDT,Max TemperatureF,Mean TemperatureF,Min TemperatureF,Max Dew PointF,MeanDew PointF,Min DewpointF,Max Humidity, Mean Humidity, Min Humidity, Max Sea Level PressureIn, Mean Sea Level PressureIn, Min Sea Level PressureIn, Max VisibilityMiles, Mean VisibilityMiles, Min VisibilityMiles, Max Wind SpeedMPH, Mean Wind SpeedMPH, Max Gust SpeedMPH,PrecipitationIn, CloudCover, Events, WindDirDegrees
2013-4-1,23,12,0,16,11,0,100,82,73,30.29,30.26,30.24,10,10,10,13,9,,0.00,0,,285
2013-4-2,24,10,-4,19,8,-8,92,84,68,30.34,30.28,30.21,10,10,10,14,6,,0.00,2,,162
2013-4-3,35,22,10,34,23,9,100,89,73,30.20,30.00,29.85,10,10,8,22,14,29,0.00,3,,199
2013-4-4,26,20,14,27,19,14,100,87,69,30.27,30.20,30.05,10,10,10,16,10,,0.00,0,,349
2013-4-5,28,14,1,28,19,0,100,95,80,30.24,30.01,29.78,10,7,0,25,11,30,0.03,5,Rain-Snow,128
2013-4-6,32,29,26,32,29,27,100,96,80,29.87,29.76,29.68,10,8,0,18,10,,0.00,8,Fog,46
2013-4-7,32,29,26,32,30,27,100,97,80,29.88,29.82,29.77,10,9,1,17,7,24,0.06,8,Snow,109
2013-4-8,26,16,5,27,14,0,100,85,63,30.34,30.07,29.83,10,9,3,29,18,36,0.00,6,,14
2013-4-9,28,14,0,19,8,-2,93,82,68,30.44,30.37,30.30,10,10,10,17,9,16,0.00,0,,349
2013-4-10,28,16,5,23,13,1,93,83,55,30.38,30.24,30.09,10,10,10,16,7,,0.00,1,,15
2013-4-11,28,22,17,27,21,12,100,81,63,30.09,29.96,29.92,10,9,1,16,11,22,0.02,7,Snow,73
2013-4-12,32,26,21,30,27,21,100,97,87,29.94,29.92,29.91,10,8,2,15,10,,0.17,8,Rain-Snow,12
2013-4-13,28,17,6,27,18,5,100,95,86,29.91,29.88,29.85,10,9,0,18,8,,0.00,5,Fog-Snow,82
2013-4-14,32,26,21,28,23,18,93,82,75,29.90,29.78,29.68,10,10,5,28,16,34,0.00,6,Rain-Snow,55
2013-4-15,32,29,26,32,28,25,100,98,87,30.01,29.77,29.63,10,4,1,26,21,32,4.34,7,Rain-Snow,3
2013-4-16,28,26,23,27,24,21,100,90,80,30.37,30.22,30.02,10,9,2,20,12,,0.19,8,Rain-Snow,12
2013-4-17,30,24,17,28,23,18,100,94,80,30.39,30.28,30.17,10,10,10,14,4,,0.00,6,,332
2013-4-18,32,24,15,25,21,14,93,79,69,30.17,30.06,29.97,10,10,10,20,13,22,0.00,0,,343
2013-4-19,32,23,14,23,18,12,100,78,60,30.08,30.01,29.93,10,10,10,23,14,23,0.00,0,,358
2013-4-20,32,16,1,27,16,0,100,88,64,30.15,30.10,30.02,10,9,0,22,7,25,0.00,4,Fog-Snow,166
2013-4-21,35,32,28,34,30,25,100,95,80,30.17,29.99,29.90,10,7,1,29,17,34,0.09,6,Snow,257
2013-4-22,30,24,17,25,20,16,100,82,64,30.36,30.30,30.17,10,10,10,17,11,20,0.00,3,,327
2013-4-23,32,20,8,28,19,7,100,90,75,30.32,30.14,29.98,10,10,10,12,8,,0.00,0,,253
2013-4-24,32,24,15,32,24,16,100,93,75,30.03,29.91,29.83,10,9,0,25,10,30,0.75,5,Rain-Snow,279
2013-4-25,37,22,8,36,24,7,100,93,80,30.03,29.93,29.82,10,10,8,21,10,26,0.00,3,,185
2013-4-26,42,34,26,39,33,27,100,94,81,30.02,29.95,29.85,10,9,0,13,7,,0.00,0,Fog,217
2013-4-27,53,44,35,46,37,34,100,84,72,29.95,29.78,29.65,10,10,9,20,11,23,0.00,2,,205
2013-4-28,50,41,32,39,34,28,100,74,50,29.90,29.73,29.57,10,10,10,20,10,28,0.00,2,,294
2013-4-29,44,36,28,45,35,28,100,93,70,29.89,29.65,29.45,10,10,3,20,8,25,0.01,2,Rain,160
2013-4-30,41,34,26,41,34,23,100,94,75,30.06,29.62,29.37,10,8,0,29,13,36,0.05,7,Fog-Rain-Snow,286